Time;durP1;ratioP1;P1;durP2;ratioP2;P2;SDS_P1;SDS_P2;PMS_P1;PMS_P2;Temp;Humidity;BMP_temperature;BMP_pressure;BME280_temperature;BME280_humidity;BME280_pressure;Samples;Min_cycle;Max_cycle;Signal;HPM_P1;HPM_P2
2021/08/15 00:00:49;;;;;;;20.65;15.88;;;;;;;;;;4998828;28;20036;-46
2021/08/15 00:03:15;;;;;;;14.95;13.43;;;;;;;;;;5016812;28;20034;-46
2021/08/15 00:05:41;;;;;;;13.85;11.75;;;;;;;;;;5016894;28;20172;-46
2021/08/15 00:08:08;;;;;;;15.07;11.25;;;;;;;;;;5016525;28;20042;-46
2021/08/15 00:10:35;;;;;;;14.25;10.18;;;;;;;;;;5016649;28;20428;-46
2021/08/15 00:13:01;;;;;;;17.30;10.27;;;;;;;;;;5017140;28;20470;-46
2021/08/15 00:15:27;;;;;;;14.25;9.90;;;;;;;;;;4966005;28;20048;-46
2021/08/15 00:17:53;;;;;;;18.70;13.68;;;;;;;;;;5016464;28;20030;-46
2021/08/15 00:20:19;;;;;;;22.23;18.63;;;;;;;;;;5016328;28;20032;-46
2021/08/15 00:22:45;;;;;;;24.88;17.05;;;;;;;;;;5016333;28;20022;-46
2021/08/15 00:25:16;;;;;;;22.35;15.75;;;;;;;;;;4998096;28;20120;-46
2021/08/15 00:27:43;;;;;;;13.65;11.98;;;;;;;;;;5016696;28;20022;-46
2021/08/15 00:30:09;;;;;;;17.30;11.55;;;;;;;;;;5016287;28;20084;-46
2021/08/15 00:32:37;;;;;;;12.35;10.05;;;;;;;;;;5016087;28;20030;-46
2021/08/15 00:35:04;;;;;;;15.23;10.07;;;;;;;;;;5016405;28;20030;-46
2021/08/15 00:37:31;;;;;;;11.57;9.45;;;;;;;;;;5015943;28;20493;-46
2021/08/15 00:39:57;;;;;;;19.38;10.27;;;;;;;;;;5016037;28;20084;-46
2021/08/15 00:42:23;;;;;;;15.35;10.13;;;;;;;;;;5015906;28;20022;-46
2021/08/15 00:44:49;;;;;;;12.05;9.60;;;;;;;;;;5016108;28;20057;-46
2021/08/15 00:47:15;;;;;;;13.77;10.13;;;;;;;;;;5015865;28;20091;-46
2021/08/15 00:49:42;;;;;;;12.88;9.52;;;;;;;;;;5015641;28;20092;-46
2021/08/15 00:52:07;;;;;;;13.18;10.02;;;25.30;91.80;;;;;;5015809;28;20104;-46
2021/08/15 00:54:35;;;;;;;13.18;9.25;;;;;;;;;;5015645;28;20131;-46
2021/08/15 00:57:01;;;;;;;12.90;9.75;;;;;;;;;;5015721;28;20085;-46
2021/08/15 00:59:27;;;;;;;17.83;10.05;;;;;;;;;;5015640;28;20033;-46
2021/08/15 01:01:54;;;;;;;12.20;8.77;;;;;;;;;;5015575;28;20022;-46
2021/08/15 01:04:26;;;;;;;12.05;9.20;;;23.10;99.90;;;;;;4974410;28;20538;-46
2021/08/15 01:06:52;;;;;;;10.93;8.65;;;23.20;91.50;;;;;;4974339;28;20047;-46
2021/08/15 01:09:19;;;;;;;11.40;8.23;;;23.10;89.80;;;;;;4974369;28;20114;-46
2021/08/15 01:11:45;;;;;;;10.95;8.63;;;23.00;93.20;;;;;;4974321;28;20077;-46
2021/08/15 01:14:11;;;;;;;15.63;8.70;;;22.70;87.60;;;;;;4958178;28;20039;-46
2021/08/15 01:16:44;;;;;;;9.57;8.57;;;22.70;87.90;;;;;;4974184;28;20038;-46
2021/08/15 01:19:11;;;;;;;11.32;8.73;;;22.80;87.70;;;;;;4974303;28;20039;-46
2021/08/15 01:21:44;;;;;;;11.38;8.25;;;22.90;87.00;;;;;;4958191;28;20069;-46
2021/08/15 01:24:10;;;;;;;12.65;8.63;;;23.00;86.30;;;;;;4974203;28;20070;-46
2021/08/15 01:26:38;;;;;;;11.82;8.45;;;23.10;86.00;;;;;;4974067;28;20034;-46
2021/08/15 01:29:04;;;;;;;11.35;7.82;;;23.20;85.60;;;;;;4975652;28;20038;-46
2021/08/15 01:31:30;;;;;;;14.07;8.95;;;23.30;85.20;;;;;;4984319;28;20128;-46
2021/08/15 01:33:55;;;;;;;12.43;8.57;;;23.50;84.70;;;;;;4983927;28;20045;-46
2021/08/15 01:36:22;;;;;;;13.90;8.93;;;23.60;84.00;;;;;;5024219;28;20037;-46
2021/08/15 01:38:50;;;;;;;12.43;8.57;;;23.70;83.70;;;;;;5034591;28;20033;-46
2021/08/15 01:41:16;;;;;;;14.95;8.07;;;23.80;83.50;;;;;;5033158;28;20091;-46
2021/08/15 01:43:58;;;;;;;10.27;7.80;;;23.80;83.30;;;;;;5034883;28;20029;-46
2021/08/15 01:46:33;;;;;;;13.45;7.55;;;23.90;82.80;;;;;;5035131;28;20034;-46
2021/08/15 01:49:01;;;;;;;11.95;7.43;;;23.90;83.00;;;;;;5034898;28;20477;-46
2021/08/15 01:51:28;;;;;;;12.45;9.05;;;24.00;83.00;;;;;;5034493;28;20109;-45
2021/08/15 01:53:56;;;;;;;10.85;8.48;;;23.90;82.70;;;;;;5034594;28;20528;-46
2021/08/15 01:56:23;;;;;;;11.93;8.77;;;23.60;83.90;;;;;;5034389;28;20032;-46
2021/08/15 01:58:49;;;;;;;15.13;9.48;;;23.50;84.90;;;;;;5034387;28;20103;-46
2021/08/15 02:01:18;;;;;;;12.55;9.10;;;23.30;85.30;;;;;;5015851;28;20124;-46
2021/08/15 02:03:46;;;;;;;12.38;9.35;;;23.30;85.80;;;;;;5034046;28;20079;-46
2021/08/15 02:06:12;;;;;;;10.27;8.38;;;23.40;85.70;;;;;;5034391;28;20079;-46
2021/08/15 02:08:38;;;;;;;13.10;8.60;;;23.30;85.60;;;;;;5034306;28;20030;-46
2021/08/15 02:11:03;;;;;;;11.27;7.95;;;23.30;86.10;;;;;;5034158;28;20097;-46
2021/08/15 02:13:29;;;;;;;13.85;8.70;;;23.30;85.90;;;;;;4951192;28;20041;-46
2021/08/15 02:15:55;;;;;;;12.95;8.63;;;23.30;86.10;;;;;;5015807;28;20428;-46
2021/08/15 02:18:21;;;;;;;16.40;9.40;;;23.30;86.00;;;;;;5034056;28;20041;-46
2021/08/15 02:20:47;;;;;;;11.57;9.18;;;23.30;86.30;;;;;;5033857;28;20032;-45
2021/08/15 02:23:13;;;;;;;10.43;8.93;;;23.10;86.90;;;;;;5034045;28;20025;-46
2021/08/15 02:25:39;;;;;;;12.43;8.88;;;23.00;86.90;;;;;;5033923;28;20029;-46
2021/08/15 02:28:06;;;;;;;14.93;9.75;;;23.00;87.30;;;;;;5034472;28;20021;-46
2021/08/15 02:30:33;;;;;;;14.25;11.07;;;23.00;87.30;;;;;;5033753;28;20033;-46
2021/08/15 02:32:59;;;;;;;12.00;10.18;;;23.20;87.00;;;;;;5033834;28;20123;-46
2021/08/15 02:35:25;;;;;;;16.92;11.95;;;23.30;86.60;;;;;;4998932;28;20493;-46
2021/08/15 02:37:53;;;;;;;14.93;10.60;;;23.30;86.70;;;;;;5015514;28;20108;-46
2021/08/15 02:40:20;;;;;;;14.90;11.07;;;23.20;86.80;;;;;;5033684;28;20025;-46
2021/08/15 02:42:48;;;;;;;16.95;10.20;;;23.20;86.70;;;;;;5033930;28;20481;-46
2021/08/15 02:45:16;;;;;;;14.00;11.07;;;23.00;86.60;;;;;;5033960;28;20030;-46
2021/08/15 02:47:43;;;;;;;13.38;9.45;;;22.90;87.20;;;;;;5032004;28;20048;-46
2021/08/15 02:50:10;;;;;;;12.63;9.85;;;22.90;87.40;;;;;;5033571;28;20409;-46
2021/08/15 02:52:36;;;;;;;12.93;9.48;;;22.80;87.70;;;;;;5033587;28;20029;-46
2021/08/15 02:55:03;;;;;;;12.52;9.32;;;22.80;87.50;;;;;;5031742;28;20500;-46
2021/08/15 02:57:29;;;;;;;11.52;9.45;;;22.70;88.00;;;;;;5033486;28;20393;-46
2021/08/15 02:59:55;;;;;;;14.40;10.50;;;22.50;88.70;;;;;;5033459;28;20051;-46
2021/08/15 03:02:22;;;;;;;14.00;11.23;;;22.40;89.50;;;;;;5031668;28;20033;-46
2021/08/15 03:04:48;;;;;;;12.77;11.38;;;22.30;90.00;;;;;;5033640;28;20103;-46
2021/08/15 03:07:15;;;;;;;17.98;11.60;;;22.20;90.20;;;;;;5033382;28;20200;-46
2021/08/15 03:09:41;;;;;;;18.05;12.68;;;22.20;90.50;;;;;;5033357;28;20117;-46
2021/08/15 03:12:07;;;;;;;18.27;12.93;;;22.00;90.90;;;;;;5033605;28;20416;-46
2021/08/15 03:14:33;;;;;;;16.60;12.18;;;21.90;91.10;;;;;;4985726;28;20128;-46
2021/08/15 03:16:59;;;;;;;14.57;11.10;;;21.90;91.40;;;;;;5037472;28;20034;-46
2021/08/15 03:19:25;;;;;;;20.63;12.77;;;22.00;91.40;;;;;;5037458;28;20063;-46
2021/08/15 03:21:50;;;;;;;14.50;11.55;;;21.90;91.40;;;;;;5037442;28;20056;-46
2021/08/15 03:24:16;;;;;;;14.77;11.52;;;21.90;91.70;;;;;;5247800;23;20070;-46
2021/08/15 03:26:46;;;;;;;14.48;10.45;;;21.80;91.80;;;;;;4983157;28;20077;-46
2021/08/15 03:29:13;;;;;;;15.55;10.55;;;21.80;91.80;;;;;;5017503;28;20495;-45
2021/08/15 03:31:40;;;;;;;15.70;10.90;;;21.90;91.90;;;;;;5017733;28;20022;-46
2021/08/15 03:34:06;;;;;;;17.63;11.30;;;21.80;91.90;;;;;;5015811;28;20085;-46
2021/08/15 03:36:32;;;;;;;12.30;10.82;;;21.80;91.80;;;;;;5017300;28;20030;-46
2021/08/15 03:38:58;;;;;;;14.07;10.82;;;21.70;92.00;;;;;;5017794;28;20049;-46
2021/08/15 03:41:24;;;;;;;15.55;11.13;;;21.80;92.10;;;;;;5017510;28;20025;-46
2021/08/15 03:43:50;;;;;;;11.82;10.45;;;21.90;92.50;;;;;;5017676;28;20033;-45
2021/08/15 03:46:16;;;;;;;15.18;10.73;;;22.00;92.00;;;;;;5017515;28;20037;-46
2021/08/15 03:48:42;;;;;;;16.60;11.45;;;22.10;92.00;;;;;;4935135;28;20030;-46
2021/08/15 03:51:08;;;;;;;14.45;11.40;;;22.10;91.70;;;;;;5017100;28;20033;-46
2021/08/15 03:53:33;;;;;;;15.85;11.52;;;22.30;91.60;;;;;;5017764;28;20029;-46
2021/08/15 03:55:59;;;;;;;14.55;11.40;;;22.40;91.20;;;;;;4966586;28;20076;-46
2021/08/15 03:58:25;;;;;;;13.18;10.65;;;22.50;91.20;;;;;;5017229;28;20115;-47
2021/08/15 04:00:51;;;;;;;18.40;11.68;;;22.60;90.70;;;;;;5015307;28;20029;-47
2021/08/15 04:03:16;;;;;;;16.95;11.63;;;22.50;90.60;;;;;;5016913;28;20034;-46
2021/08/15 04:05:42;;;;;;;18.85;12.43;;;22.40;90.80;;;;;;4982479;28;20026;-46
2021/08/15 04:08:09;;;;;;;18.33;12.80;;;22.30;90.80;;;;;;5016763;28;20377;-46
2021/08/15 04:10:35;;;;;;;17.05;12.80;;;22.40;90.90;;;;;;5015122;28;20065;-46
2021/08/15 04:13:01;;;;;;;17.08;12.50;;;22.60;91.00;;;;;;5016684;28;20036;-46
2021/08/15 04:15:27;;;;;;;14.57;11.45;;;22.80;90.50;;;;;;5016654;28;20104;-46
2021/08/15 04:17:53;;;;;;;17.58;11.68;;;22.80;90.20;;;;;;5016569;28;20388;-46
2021/08/15 04:20:21;;;;;;;14.88;12.18;;;22.90;90.20;;;;;;5016779;28;20097;-46
2021/08/15 04:22:48;;;;;;;14.98;11.27;;;22.90;90.00;;;;;;5016476;28;20033;-46
2021/08/15 04:25:14;;;;;;;17.30;12.02;;;23.00;89.90;;;;;;5015831;28;20058;-46
2021/08/15 04:27:39;;;;;;;14.25;11.13;;;23.10;90.00;;;;;;5016389;28;20060;-46
2021/08/15 04:30:07;;;;;;;13.00;10.85;;;23.20;89.50;;;;;;5016713;28;20054;-46
2021/08/15 04:32:33;;;;;;;13.68;10.07;;;23.30;89.10;;;;;;5016380;28;20113;-46
2021/08/15 04:34:59;;;;;;;12.40;10.25;;;23.20;88.90;;;;;;5016552;28;20093;-46
2021/08/15 04:37:25;;;;;;;16.50;11.15;;;23.00;89.30;;;;;;5016441;28;20539;-46
2021/08/15 04:39:51;;;;;;;19.25;11.68;;;22.90;89.80;;;;;;5016433;28;20050;-46
2021/08/15 04:42:18;;;;;;;19.27;11.90;;;23.00;90.10;;;;;;5016450;28;20441;-46
2021/08/15 04:44:43;;;;;;;19.38;12.95;;;23.10;90.00;;;;;;5016331;28;20030;-46
2021/08/15 04:47:09;;;;;;;15.20;11.52;;;23.00;90.00;;;;;;4965630;28;20481;-46
2021/08/15 04:49:35;;;;;;;18.08;12.18;;;23.00;90.10;;;;;;5016257;28;20420;-46
2021/08/15 04:52:01;;;;;;;15.10;11.25;;;23.00;90.40;;;;;;5015943;28;20538;-46
2021/08/15 04:54:27;;;;;;;16.10;11.77;;;23.10;90.40;;;;;;4997801;28;20113;-46
2021/08/15 04:56:54;;;;;;;13.98;11.20;;;23.30;90.10;;;;;;5015782;28;20469;-46
2021/08/15 04:59:20;;;;;;;15.45;11.68;;;23.40;89.80;;;;;;5014375;28;20037;-46
2021/08/15 05:01:45;;;;;;;13.63;10.85;;;23.50;89.50;;;;;;4997890;28;20041;-46
2021/08/15 05:04:11;;;;;;;15.93;11.63;;;23.60;89.60;;;;;;5016017;28;20033;-46
2021/08/15 05:06:37;;;;;;;14.15;11.15;;;23.50;89.60;;;;;;5015656;28;20378;-46
2021/08/15 05:09:03;;;;;;;14.07;11.32;;;23.60;89.60;;;;;;5014135;28;20030;-46
2021/08/15 05:11:29;;;;;;;14.27;11.50;;;23.60;90.20;;;;;;5015901;28;20022;-46
2021/08/15 05:13:55;;;;;;;13.88;11.52;;;23.60;90.00;;;;;;5013790;28;20030;-46
2021/08/15 05:16:21;;;;;;;13.63;12.10;;;23.50;90.50;;;;;;5014125;28;20033;-46
2021/08/15 05:18:47;;;;;;;17.45;12.27;;;23.30;91.00;;;;;;5013819;28;20033;-46
2021/08/15 05:21:12;;;;;;;20.40;14.02;;;23.50;91.10;;;;;;5015559;28;20085;-46
2021/08/15 05:23:38;;;;;;;22.75;13.98;;;23.80;90.80;;;;;;5015425;28;20097;-46
2021/08/15 05:26:04;;;;;;;19.58;16.67;;;24.00;90.50;;;;;;5015607;28;20026;-46
2021/08/15 05:28:29;;;;;;;22.20;16.75;;;24.20;90.00;;;;;;5005442;28;20117;-46
2021/08/15 05:30:55;;;;;;;19.35;14.30;;;24.30;89.50;;;;;;4995937;28;20023;-46
2021/08/15 05:33:21;;;;;;;15.52;12.95;;;24.30;89.10;;;;;;4995946;28;20034;-46
2021/08/15 05:35:47;;;;;;;17.00;12.82;;;24.50;88.50;;;;;;4995543;28;20026;-46
2021/08/15 05:38:13;;;;;;;15.32;9.93;;;24.50;87.60;;;;;;4994747;28;20052;-46
2021/08/15 05:40:38;;;;;;;20.98;10.45;;;24.50;87.30;;;;;;4995623;28;20018;-46
2021/08/15 05:43:04;;;;;;;20.20;11.50;;;24.70;87.90;;;;;;4996585;28;20022;-46
2021/08/15 05:45:30;;;;;;;21.42;10.80;;;25.00;87.80;;;;;;4993759;28;20031;-46
2021/08/15 05:47:56;;;;;;;15.07;9.85;;;25.10;86.80;;;;;;4995300;28;20033;-46
2021/08/15 05:50:22;;;;;;;17.50;9.52;;;25.20;85.90;;;;;;4995615;28;20022;-46
2021/08/15 05:52:47;;;;;;;12.88;9.27;;;25.30;86.40;;;;;;4995580;28;20037;-46
2021/08/15 05:55:13;;;;;;;13.10;8.82;;;25.30;85.60;;;;;;4995519;28;20458;-46
2021/08/15 05:57:39;;;;;;;13.73;9.05;;;25.40;84.10;;;;;;5009755;28;20047;-46
2021/08/15 06:00:07;;;;;;;12.82;8.73;;;25.50;84.70;;;;;;4961322;28;20031;-46
2021/08/15 06:02:33;;;;;;;12.18;9.25;;;25.50;84.70;;;;;;4945013;28;20033;-46
2021/08/15 06:04:59;;;;;;;15.48;9.10;;;25.80;84.30;;;;;;5014708;28;20512;-46
2021/08/15 06:07:24;;;;;;;16.85;8.25;;;26.00;84.30;;;;;;5014605;28;20026;-46
2021/08/15 06:09:50;;;;;;;12.05;8.23;;;;;;;;;;5015268;28;20118;-46
2021/08/15 06:12:16;;;;;;;9.18;8.18;;;26.20;80.90;;;;;;5012762;28;20056;-46
2021/08/15 06:14:43;;;;;;;12.50;8.30;;;;;;;;;;5015272;28;20449;-46
2021/08/15 06:17:09;;;;;;;12.23;7.50;;;;;;;;;;5014368;28;20030;-45
2021/08/15 06:19:35;;;;;;;14.20;8.25;;;26.90;79.90;;;;;;5002236;28;20105;-46
2021/08/15 06:22:01;;;;;;;14.63;8.25;;;27.00;79.70;;;;;;4995009;28;20046;-46
2021/08/15 06:24:27;;;;;;;11.38;7.85;;;27.00;78.40;;;;;;4994727;28;20491;-46
2021/08/15 06:26:53;;;;;;;12.23;7.75;;;27.10;78.60;;;;;;4994698;28;20037;-46
2021/08/15 06:29:19;;;;;;;12.95;7.60;;;27.30;78.30;;;;;;4994907;28;20046;-46
2021/08/15 06:31:45;;;;;;;11.93;8.27;;;27.20;77.50;;;;;;4993741;28;20426;-46
2021/08/15 06:34:11;;;;;;;10.38;8.10;;;;;;;;;;4994886;28;20053;-46
2021/08/15 06:36:37;;;;;;;12.40;8.80;;;27.60;77.10;;;;;;4992721;28;20038;-46
2021/08/15 06:39:05;;;;;;;14.52;7.90;;;28.00;99.90;;;;;;4994920;28;20129;-46
2021/08/15 06:41:32;;;;;;;10.48;7.90;;;28.10;76.50;;;;;;4994688;28;20031;-46
2021/08/15 06:43:58;;;;;;;11.38;7.43;;;28.20;75.80;;;;;;5006979;28;20037;-46
2021/08/15 06:46:23;;;;;;;10.48;7.32;;;28.40;75.20;;;;;;5008532;28;20026;-47
2021/08/15 06:48:49;;;;;;;12.40;7.88;;;28.50;74.80;;;;;;4976015;28;20121;-45
2021/08/15 06:51:15;;;;;;;11.77;7.95;;;28.50;75.10;;;;;;4996941;28;20038;-46
2021/08/15 06:53:42;;;;;;;12.43;8.18;;;28.80;74.70;;;;;;5003000;28;20022;-46
2021/08/15 06:56:09;;;;;;;10.32;7.80;;;28.60;74.40;;;;;;4969063;28;20065;-46
2021/08/15 06:58:36;;;;;;;9.38;7.40;;;;;;;;;;5004381;28;20041;-46
2021/08/15 07:01:02;;;;;;;10.40;7.05;;;;;;;;;;5003114;28;20039;-46
2021/08/15 07:03:28;;;;;;;12.43;7.18;;;29.30;79.60;;;;;;5003683;28;20326;-46
2021/08/15 07:05:54;;;;;;;10.75;6.60;;;29.50;71.80;;;;;;4992105;28;20045;-46
2021/08/15 07:08:20;;;;;;;10.40;8.13;;;;;;;;;;5007936;28;20409;-46
2021/08/15 07:10:47;;;;;;;10.32;7.32;;;29.80;70.80;;;;;;5000996;28;20065;-46
2021/08/15 07:13:14;;;;;;;11.57;7.50;;;30.10;70.90;;;;;;5004682;28;20461;-46
2021/08/15 07:15:40;;;;;;;11.88;7.40;;;30.30;70.50;;;;;;5003263;28;20093;-46
2021/08/15 07:18:06;;;;;;;8.63;6.05;;;30.50;69.90;;;;;;5002277;28;20453;-47
2021/08/15 07:20:31;;;;;;;10.48;7.07;;;30.60;68.20;;;;;;5004287;28;20029;-47
2021/08/15 07:22:57;;;;;;;10.15;7.05;;;30.70;68.50;;;;;;5002818;28;20022;-47
2021/08/15 07:25:29;;;;;;;11.77;6.97;;;30.70;68.40;;;;;;4969308;28;20046;-46
2021/08/15 07:27:55;;;;;;;11.13;7.78;;;;;;;;;;4999345;28;20429;-46
2021/08/15 07:30:21;;;;;;;13.98;7.35;;;31.20;67.40;;;;;;4996044;28;20459;-47
2021/08/15 07:33:03;;;;;;;14.55;7.80;;;31.50;79.10;;;;;;5002136;28;20062;-47
2021/08/15 07:35:31;;;;;;;12.13;6.95;;;31.50;66.70;;;;;;5016700;28;20034;-47
2021/08/15 07:37:57;;;;;;;15.00;7.50;;;31.50;67.90;;;;;;5024466;28;20049;-47
2021/08/15 07:40:23;;;;;;;11.95;6.68;;;31.70;67.20;;;;;;5003329;28;20572;-47
2021/08/15 07:42:51;;;;;;;13.30;7.55;;;;;;;;;;5016814;28;20121;-49
2021/08/15 07:45:18;;;;;;;15.52;7.85;;;;;;;;;;5001382;28;20026;-47
2021/08/15 07:47:44;;;;;;;10.30;7.18;;;;;;;;;;5003895;28;20157;-48
2021/08/15 07:50:10;;;;;;;12.15;6.47;;;;;;;;;;4999698;28;20076;-47
2021/08/15 07:52:37;;;;;;;9.00;6.93;;;;;;;;;;5002182;28;20041;-46
2021/08/15 07:55:04;;;;;;;15.73;11.48;;;32.90;65.00;;;;;;5004224;28;20022;-47
2021/08/15 07:57:30;;;;;;;12.95;7.28;;;32.90;65.30;;;;;;4988398;28;20042;-47
2021/08/15 07:59:57;;;;;;;9.45;6.55;;;33.10;64.70;;;;;;4996767;28;20184;-47
2021/08/15 08:02:23;;;;;;;10.68;7.10;;;;;;;;;;5012384;28;20038;-47
2021/08/15 08:04:50;;;;;;;12.50;8.13;;;;;;;;;;5004196;28;20038;-47
2021/08/15 08:07:19;;;;;;;9.40;6.90;;;;;;;;;;5004923;28;20037;-48
2021/08/15 08:09:46;;;;;;;8.80;6.18;;;;;;;;;;5007988;28;20032;-48
2021/08/15 08:12:12;;;;;;;10.27;6.22;;;33.90;61.10;;;;;;4999521;28;20034;-46
2021/08/15 08:14:38;;;;;;;11.07;6.03;;;33.90;59.80;;;;;;5005722;28;20018;-47
2021/08/15 08:17:04;;;;;;;12.68;5.57;;;33.80;60.00;;;;;;5003884;28;20041;-48
2021/08/15 08:19:30;;;;;;;6.55;5.88;;;34.30;60.20;;;;;;5013411;28;20512;-49
2021/08/15 08:21:55;;;;;;;9.15;5.38;;;34.40;60.70;;;;;;5016245;28;20113;-46
2021/08/15 08:24:21;;;;;;;7.30;6.13;;;34.70;60.50;;;;;;4998212;28;20045;-48
2021/08/15 08:26:47;;;;;;;9.82;5.72;;;;;;;;;;5030724;28;20053;-47
2021/08/15 08:29:13;;;;;;;8.63;5.53;;;35.10;59.90;;;;;;4981707;28;20038;-48
2021/08/15 08:31:39;;;;;;;7.43;5.50;;;34.90;56.70;;;;;;5010915;28;20034;-47
2021/08/15 08:34:05;;;;;;;8.05;5.88;;;;;;;;;;5014537;28;20040;-47
2021/08/15 08:36:30;;;;;;;7.80;5.25;;;35.60;92.40;;;;;;5012685;28;20034;-48
2021/08/15 08:38:56;;;;;;;13.80;5.85;;;35.70;58.30;;;;;;5012265;28;20535;-48
2021/08/15 08:41:22;;;;;;;11.10;5.57;;;35.90;80.50;;;;;;5014655;28;20045;-48
2021/08/15 08:43:48;;;;;;;8.45;5.05;;;35.70;86.60;;;;;;5013685;28;20022;-49
2021/08/15 08:46:15;;;;;;;6.68;5.57;;;36.00;86.70;;;;;;5014958;28;20026;-49
2021/08/15 08:48:41;;;;;;;9.95;5.63;;;36.30;64.40;;;;;;5014517;28;20026;-47
2021/08/15 08:51:08;;;;;;;6.97;4.93;;;;;;;;;;5012064;28;20092;-49
2021/08/15 08:53:35;;;;;;;8.93;5.20;;;36.40;52.30;;;;;;5014342;28;20026;-47
2021/08/15 08:56:02;;;;;;;5.18;4.50;;;36.40;53.10;;;;;;5014393;28;20040;-48
2021/08/15 08:58:28;;;;;;;6.38;5.10;;;35.90;51.40;;;;;;5025611;28;20046;-47
2021/08/15 09:00:54;;;;;;;7.22;4.85;;;36.30;53.40;;;;;;5009471;28;20052;-48
2021/08/15 09:03:19;;;;;;;4.60;4.03;;;36.50;51.20;;;;;;5013623;28;20034;-48
2021/08/15 09:05:53;;;;;;;6.80;4.35;;;36.20;51.60;;;;;;5014444;28;20117;-47
2021/08/15 09:08:33;;;;;;;6.43;4.65;;;36.30;50.90;;;;;;5014585;28;20033;-49
2021/08/15 09:11:14;;;;;;;9.20;4.45;;;;;;;;;;5013989;28;20096;-48
2021/08/15 09:13:40;;;;;;;8.05;4.85;;;;;;;;;;5028794;28;20042;-48
2021/08/15 09:16:06;;;;;;;7.28;5.07;;;;;;;;;;5013768;28;20461;-49
2021/08/15 09:18:33;;;;;;;7.05;4.65;;;;;;;;;;5014224;28;20034;-48
2021/08/15 09:20:59;;;;;;;5.28;3.97;;;37.90;50.90;;;;;;5014377;28;20061;-47
2021/08/15 09:23:29;;;;;;;7.05;4.10;;;37.70;49.10;;;;;;5012317;28;20385;-48
2021/08/15 09:26:19;;;;;;;7.22;5.00;;;37.30;49.90;;;;;;5014342;28;20030;-48
2021/08/15 09:28:47;;;;;;;5.72;3.63;;;37.80;50.30;;;;;;5000461;28;20497;-48
2021/08/15 09:31:32;;;;;;;6.47;4.50;;;37.90;48.20;;;;;;5010282;28;20374;-47
2021/08/15 09:33:59;;;;;;;5.95;3.95;;;38.20;49.20;;;;;;5010824;28;20417;-48
2021/08/15 09:36:29;;;;;;;7.40;4.47;;;;;;;;;;5013545;28;20029;-48
2021/08/15 09:38:56;;;;;;;8.90;4.60;;;;;;;;;;5028048;28;20532;-48
2021/08/15 09:41:24;;;;;;;6.50;3.92;;;38.00;62.90;;;;;;5014430;28;20068;-48
2021/08/15 09:44:18;;;;;;;6.18;4.50;;;38.40;61.00;;;;;;5027702;28;20049;-49
2021/08/15 09:47:05;;;;;;;5.82;3.83;;;38.50;70.70;;;;;;5027112;28;20486;-49
2021/08/15 09:49:34;;;;;;;8.32;4.10;;;;;;;;;;5009593;28;20042;-48
2021/08/15 09:52:00;;;;;;;6.65;3.67;;;39.10;80.40;;;;;;5014675;28;20112;-49
2021/08/15 09:54:26;;;;;;;5.15;4.28;;;38.80;72.70;;;;;;5010897;28;20066;-48
2021/08/15 09:56:51;;;;;;;5.35;4.00;;;39.10;63.70;;;;;;5012369;28;20066;-47
2021/08/15 09:59:19;;;;;;;6.45;4.07;;;38.80;46.70;;;;;;5013287;28;20026;-47
2021/08/15 10:01:53;;;;;;;4.68;3.90;;;39.30;47.80;;;;;;5011178;28;20053;-49
2021/08/15 10:04:20;;;;;;;7.22;4.20;;;39.20;46.70;;;;;;5012372;28;20117;-48
2021/08/15 10:06:48;;;;;;;7.03;3.92;;;38.70;46.70;;;;;;5014031;28;20034;-48
2021/08/15 10:09:14;;;;;;;6.07;4.13;;;38.50;47.10;;;;;;5022627;28;20050;-48
2021/08/15 10:11:41;;;;;;;7.25;4.40;;;39.10;47.20;;;;;;5012576;28;20064;-48
2021/08/15 10:14:09;;;;;;;6.80;4.38;;;39.80;47.90;;;;;;5012943;28;20473;-48
2021/08/15 10:16:40;;;;;;;6.72;4.30;;;39.40;45.80;;;;;;5011998;28;20064;-48
2021/08/15 10:19:07;;;;;;;;;;;39.30;46.30;;;;;;5013753;28;20196;-49
2021/08/15 10:21:39;;;;;;;7.63;3.90;;;39.30;50.80;;;;;;5012962;28;19909;-47
2021/08/15 10:24:07;;;;;;;8.02;4.47;;;;;;;;;;5001843;28;20051;-49
2021/08/15 10:26:36;;;;;;;7.03;4.70;;;40.10;45.80;;;;;;5009105;28;20042;-49
2021/08/15 10:29:03;;;;;;;6.32;4.20;;;40.10;47.50;;;;;;5012477;28;20038;-49
2021/08/15 10:32:06;;;;;;;9.77;4.28;;;39.70;46.70;;;;;;5013214;28;20026;-48
2021/08/15 10:34:54;;;;;;;6.18;4.50;;;39.90;47.80;;;;;;5013055;28;20362;-48
2021/08/15 10:37:25;;;;;;;5.38;4.15;;;39.90;46.20;;;;;;5006321;28;20042;-48
2021/08/15 10:39:54;;;;;;;6.20;4.22;;;39.90;46.30;;;;;;5012949;28;20030;-49
2021/08/15 10:42:45;;;;;;;7.45;4.13;;;39.90;45.90;;;;;;5027493;28;20121;-49
2021/08/15 10:45:15;;;;;;;6.03;3.80;;;39.70;46.30;;;;;;5007775;28;20095;-48
2021/08/15 10:47:41;;;;;;;6.68;4.40;;;39.80;45.90;;;;;;5008971;28;20037;-50
2021/08/15 10:50:10;;;;;;;7.72;3.70;;;40.20;46.10;;;;;;5008042;28;20493;-50
2021/08/15 10:52:42;;;;;;;5.28;3.80;;;40.70;45.50;;;;;;5008909;28;20081;-51
2021/08/15 10:55:10;;;;;;;7.65;4.70;;;40.80;46.40;;;;;;4992843;28;20096;-48
2021/08/15 10:57:48;;;;;;;4.43;3.65;;;40.70;45.70;;;;;;5011350;28;20030;-50
2021/08/15 11:00:29;;;;;;;9.40;4.30;;;40.30;45.80;;;;;;5012592;28;20026;-50
2021/08/15 11:03:19;;;;;;;6.85;4.30;;;40.30;45.60;;;;;;5010953;28;20528;-50
2021/08/15 11:05:45;;;;;;;5.72;4.30;;;39.40;45.70;;;;;;4955123;28;20069;-50
2021/08/15 11:08:32;;;;;;;6.88;3.85;;;39.70;46.80;;;;;;4963641;28;20039;-50
2021/08/15 11:11:03;;;;;;;6.72;3.88;;;39.60;46.80;;;;;;4969523;28;20134;-49
2021/08/15 11:13:31;;;;;;;4.85;4.30;;;39.50;46.10;;;;;;4969916;28;20030;-50
2021/08/15 11:16:26;;;;;;;7.95;4.30;;;40.30;46.30;;;;;;4954345;28;20055;-49
2021/08/15 11:19:13;;;;;;;6.68;3.72;;;40.00;45.70;;;;;;4889426;29;20064;-51
2021/08/15 11:22:14;;;;;;;7.03;4.00;;;40.60;47.00;;;;;;4894540;29;20044;-51
2021/08/15 11:24:45;;;;;;;5.07;4.10;;;40.70;44.90;;;;;;4891904;29;20093;-50
2021/08/15 11:27:27;;;;;;;6.32;3.90;;;40.80;45.30;;;;;;4893503;29;20033;-49
2021/08/15 11:29:54;;;;;;;6.55;4.00;;;40.20;45.10;;;;;;4889577;29;20585;-50
2021/08/15 11:32:24;;;;;;;6.72;4.00;;;40.00;45.60;;;;;;4893425;29;20045;-50
2021/08/15 11:35:00;;;;;;;7.25;4.20;;;40.40;47.00;;;;;;4893250;29;20115;-50
2021/08/15 11:37:33;;;;;;;8.38;4.50;;;;;;;;;;4897377;29;20049;-50
2021/08/15 11:40:15;;;;;;;7.82;3.92;;;41.10;44.50;;;;;;4898649;29;20037;-50
2021/08/15 11:42:43;;;;;;;11.27;4.07;;;40.80;44.40;;;;;;4884646;29;20094;-52
2021/08/15 11:45:09;;;;;;;8.25;4.40;;;40.60;46.00;;;;;;4937048;29;20514;-50
2021/08/15 11:47:38;;;;;;;7.60;3.42;;;40.80;44.70;;;;;;4916451;29;20047;-50
2021/08/15 11:50:15;;;;;;;5.35;3.40;;;40.30;45.10;;;;;;4936259;29;20496;-50
2021/08/15 11:52:41;;;;;;;9.15;4.70;;;40.60;45.60;;;;;;4936161;29;20063;-49
2021/08/15 11:55:24;;;;;;;6.85;3.58;;;40.80;45.00;;;;;;4938161;28;20069;-49
2021/08/15 11:57:54;;;;;;;8.35;4.13;;;41.10;43.90;;;;;;5009285;28;20053;-50
2021/08/15 12:00:35;;;;;;;7.10;3.63;;;41.30;44.20;;;;;;5015587;28;20538;-50
2021/08/15 12:03:07;;;;;;;10.60;4.60;;;39.90;42.30;;;;;;5015920;28;20034;-49
2021/08/15 12:05:42;;;;;;;8.00;3.90;;;40.50;44.30;;;;;;5013397;28;20141;-50
2021/08/15 12:08:12;;;;;;;7.50;3.40;;;40.90;44.00;;;;;;5016470;28;20057;-50
2021/08/15 12:10:59;;;;;;;6.20;3.42;;;41.20;43.40;;;;;;5015036;28;20030;-50
2021/08/15 12:13:37;;;;;;;7.50;3.75;;;41.10;42.80;;;;;;5013901;28;20096;-50
2021/08/15 12:16:03;;;;;;;8.57;3.92;;;41.00;44.20;;;;;;5011366;28;20038;-50
2021/08/15 12:18:39;;;;;;;5.63;3.70;;;40.60;43.10;;;;;;5015816;28;20044;-50
2021/08/15 12:21:20;;;;;;;6.82;3.95;;;40.80;43.60;;;;;;5015731;28;20176;-50
2021/08/15 12:24:08;;;;;;;5.25;3.40;;;40.80;43.70;;;;;;5015207;28;20470;-50
2021/08/15 12:26:58;;;;;;;7.68;4.05;;;41.00;43.50;;;;;;5014932;28;20034;-49
2021/08/15 12:29:30;;;;;;;5.50;3.88;;;41.20;44.00;;;;;;4973196;28;20050;-50
2021/08/15 12:32:10;;;;;;;6.10;4.30;;;40.80;43.80;;;;;;4972604;28;20054;-48
2021/08/15 12:34:41;;;;;;;7.43;3.90;;;40.40;43.30;;;;;;4933894;28;20085;-50
2021/08/15 12:37:14;;;;;;;6.93;3.60;;;40.50;44.10;;;;;;4972758;28;20039;-50
2021/08/15 12:39:43;;;;;;;8.55;4.05;;;40.50;44.60;;;;;;4935154;28;20038;-49
2021/08/15 12:42:22;;;;;;;8.27;3.72;;;40.10;43.10;;;;;;4968859;28;20352;-50
2021/08/15 12:44:47;;;;;;;5.35;3.40;;;40.90;45.60;;;;;;4927790;28;20038;-50
2021/08/15 12:47:14;;;;;;;9.50;3.75;;;40.90;44.30;;;;;;4938229;28;20039;-49
2021/08/15 12:49:45;;;;;;;9.38;4.60;;;40.80;43.50;;;;;;4938024;28;20526;-49
2021/08/15 12:52:11;;;;;;;;;;;40.60;43.30;;;;;;4922069;28;20458;-49
2021/08/15 12:55:01;;;;;;;6.78;4.03;;;40.60;44.20;;;;;;4970868;28;19914;-50
2021/08/15 12:57:27;;;;;;;4.73;3.63;;;40.90;44.10;;;;;;4970687;28;20479;-50
2021/08/15 12:59:53;;;;;;;5.80;3.75;;;40.80;44.30;;;;;;4938993;28;20269;-49
2021/08/15 13:02:19;;;;;;;6.43;3.63;;;41.00;45.00;;;;;;4969995;28;20375;-50